Time,TemperatureF,DewpointF,PressureIn,WindDirection,WindDirectionDegrees,WindSpeedMPH,WindSpeedGustMPH,Humidity,HourlyPrecipIn,Conditions,Clouds,dailyrainin,SoftwareType,DateUTC
2013-04-12 00:00:00,38.0,20.5,30.20,NNE,20,16.1,16.1,49,0.00,CLR,,0.06,WeatherDisplay:10.37,2013-04-12 04:00:00,
2013-04-12 00:05:00,37.9,20.4,30.20,North,10,9.2,9.2,49,0.00,RA,,0.00,WeatherDisplay:10.37,2013-04-12 04:05:00,
2013-04-12 00:10:00,37.7,20.2,30.20,North,0,12.7,12.7,49,0.00,BKN,,0.00,WeatherDisplay:10.37,2013-04-12 04:10:00,
2013-04-12 00:15:00,37.7,19.8,30.21,North,359,10.4,10.4,48,0.00,BKN,,0.00,WeatherDisplay:10.37,2013-04-12 04:15:00,
2013-04-12 00:20:00,37.6,21.1,30.21,NNE,32,8.1,8.1,51,0.00,BKN,,0.00,WeatherDisplay:10.37,2013-04-12 04:20:00,
2013-04-12 00:25:00,37.5,21.0,30.21,North,11,3.5,3.5,51,0.00,BKN,,0.00,WeatherDisplay:10.37,2013-04-12 04:25:00,
2013-04-12 00:30:00,37.5,21.0,30.21,North,0,3.5,3.5,51,0.00,BKN,,0.00,WeatherDisplay:10.37,2013-04-12 04:30:00,
2013-04-12 00:35:00,37.3,20.3,30.22,North,356,9.2,9.2,50,0.00,BKN,,0.00,WeatherDisplay:10.37,2013-04-12 04:35:00,
2013-04-12 00:40:00,37.3,19.9,30.22,North,357,12.7,12.7,49,0.00,BKN,,0.00,WeatherDisplay:10.37,2013-04-12 04:40:00,
2013-04-12 00:45:00,37.2,19.8,30.22,North,359,16.1,16.1,49,0.00,BKN,,0.00,WeatherDisplay:10.37,2013-04-12 04:45:00,
2013-04-12 00:50:00,37.0,20.1,30.22,North,0,8.1,8.1,50,0.00,BKN,,0.00,WeatherDisplay:10.37,2013-04-12 04:50:00,
2013-04-12 00:55:00,36.9,19.5,30.22,North,359,13.8,13.8,49,0.00,BKN,,0.00,WeatherDisplay:10.37,2013-04-12 04:55:00,
2013-04-12 01:00:00,36.9,19.5,30.22,North,6,10.4,10.4,49,0.00,BKN,,0.00,WeatherDisplay:10.37,2013-04-12 05:00:00,
2013-04-12 01:05:00,36.7,19.3,30.22,North,7,18.4,18.4,49,0.00,OVC,,0.00,WeatherDisplay:10.37,2013-04-12 05:05:00,
2013-04-12 01:10:00,36.6,20.2,30.22,NW,318,12.7,12.7,51,0.00,OVC,,0.00,WeatherDisplay:10.37,2013-04-12 05:10:00,
2013-04-12 01:15:00,36.6,19.7,30.22,NNE,18,12.7,12.7,50,0.00,OVC,,0.00,WeatherDisplay:10.37,2013-04-12 05:15:00,
2013-04-12 01:20:00,36.6,19.7,30.23,North,359,8.1,8.1,50,0.00,OVC,,0.00,WeatherDisplay:10.37,2013-04-12 05:20:00,
2013-04-12 01:26:00,36.4,20.0,30.23,North,0,8.1,8.1,51,0.00,OVC,,0.00,WeatherDisplay:10.37,2013-04-12 05:26:00,
2013-04-12 01:30:00,36.4,19.5,30.23,NNE,30,9.2,9.2,50,0.00,OVC,,0.00,WeatherDisplay:10.37,2013-04-12 05:30:00,
2013-04-12 01:36:00,36.3,19.9,30.23,NNE,24,12.7,12.7,51,0.00,OVC,,0.00,WeatherDisplay:10.37,2013-04-12 05:36:00,
2013-04-12 01:41:00,36.3,19.9,30.23,NNE,18,8.1,8.1,51,0.00,OVC,,0.00,WeatherDisplay:10.37,2013-04-12 05:41:00,
2013-04-12 01:46:00,36.2,19.3,30.21,NNE,20,11.5,11.5,50,0.00,OVC,,0.00,WeatherDisplay:10.37,2013-04-12 05:46:00,
2013-04-12 01:51:00,36.0,19.6,30.21,North,0,10.4,10.4,51,0.00,OVC,,0.00,WeatherDisplay:10.37,2013-04-12 05:51:00,
2013-04-12 01:56:00,35.9,20.0,30.22,North,11,13.8,13.8,52,0.00,OVC,,0.00,WeatherDisplay:10.37,2013-04-12 05:56:00,
2013-04-12 02:01:00,35.7,20.2,30.22,North,350,10.4,10.4,53,0.00,OVC,,0.00,WeatherDisplay:10.37,2013-04-12 06:01:00,
2013-04-12 02:06:00,35.7,19.8,30.21,NNE,25,10.4,10.4,52,0.00,OVC,,0.00,WeatherDisplay:10.37,2013-04-12 06:06:00,
2013-04-12 02:11:00,35.7,20.2,30.21,North,0,8.1,8.1,53,0.00,OVC,,0.00,WeatherDisplay:10.37,2013-04-12 06:11:00,
2013-04-12 02:16:00,35.6,20.1,30.21,NNE,27,12.7,12.7,53,0.00,OVC,,0.00,WeatherDisplay:10.37,2013-04-12 06:16:00,
2013-04-12 02:21:00,35.6,19.7,30.22,NNW,347,9.2,9.2,52,0.00,OVC,,0.00,WeatherDisplay:10.37,2013-04-12 06:21:00,
2013-04-12 02:26:00,35.4,19.5,30.22,NNE,14,13.8,13.8,52,0.00,OVC,,0.00,WeatherDisplay:10.37,2013-04-12 06:26:00,
2013-04-12 02:31:00,35.4,19.9,30.23,North,10,6.9,6.9,53,0.00,OVC,,0.00,WeatherDisplay:10.37,2013-04-12 06:31:00,
2013-04-12 02:36:00,35.4,19.0,30.23,NNW,340,13.0,13.0,51,0.00,OVC,,0.00,WeatherDisplay:10.37,2013-04-12 06:36:00,
2013-04-12 02:41:00,35.4,19.9,30.22,North,0,9.1,9.1,53,0.00,OVC,,0.00,WeatherDisplay:10.37,2013-04-12 06:41:00,
2013-04-12 02:46:00,35.3,19.9,30.22,NNE,18,10.4,10.4,53,0.00,OVC,,0.00,WeatherDisplay:10.37,2013-04-12 06:46:00,
2013-04-12 02:52:00,35.2,20.2,30.23,North,0,9.2,9.2,54,0.00,OVC,,0.00,WeatherDisplay:10.37,2013-04-12 06:52:00,
2013-04-12 02:57:00,35.0,20.0,30.23,North,6,10.4,10.4,54,0.00,OVC,,0.00,WeatherDisplay:10.37,2013-04-12 06:57:00,
2013-04-12 03:02:00,34.9,19.5,30.22,NNE,24,9.2,9.2,53,0.00,BKN,,0.00,WeatherDisplay:10.37,2013-04-12 07:02:00,
2013-04-12 03:07:00,34.6,19.2,30.23,NE,40,10.4,10.4,53,0.00,BKN,,0.00,WeatherDisplay:10.37,2013-04-12 07:07:00,
2013-04-12 03:12:00,34.6,19.6,30.23,NNE,17,6.9,6.9,54,0.00,BKN,,0.00,WeatherDisplay:10.37,2013-04-12 07:12:00,
2013-04-12 03:17:00,34.6,19.2,30.23,North,0,9.2,9.2,53,0.00,BKN,,0.00,WeatherDisplay:10.37,2013-04-12 07:17:00,
2013-04-12 03:22:00,34.6,18.3,30.23,NNE,25,10.4,10.4,51,0.00,BKN,,0.00,WeatherDisplay:10.37,2013-04-12 07:22:00,
2013-04-12 03:27:00,34.7,17.9,30.23,NE,38,13.0,13.0,50,0.00,BKN,,0.00,WeatherDisplay:10.37,2013-04-12 07:27:00,
2013-04-12 03:32:00,34.7,18.4,30.23,NNE,25,9.2,9.2,51,0.00,BKN,,0.00,WeatherDisplay:10.37,2013-04-12 07:32:00,
2013-04-12 03:37:00,34.7,18.9,30.23,NNE,21,10.4,10.4,52,0.00,BKN,,0.00,WeatherDisplay:10.37,2013-04-12 07:37:00,
2013-04-12 03:42:00,34.7,17.9,30.24,NE,35,12.7,12.7,50,0.00,BKN,,0.00,WeatherDisplay:10.37,2013-04-12 07:42:00,
2013-04-12 03:47:00,34.6,18.3,30.24,NNE,30,10.4,10.4,51,0.00,BKN,,0.00,WeatherDisplay:10.37,2013-04-12 07:47:00,
2013-04-12 03:52:00,34.6,18.3,30.24,NE,55,10.4,10.4,51,0.00,BKN,,0.00,WeatherDisplay:10.37,2013-04-12 07:52:00,
2013-04-12 03:57:00,34.6,18.8,30.24,NE,40,3.5,3.5,52,0.00,BKN,,0.00,WeatherDisplay:10.37,2013-04-12 07:57:00,
2013-04-12 04:02:00,34.4,17.7,30.24,North,0,10.4,10.4,50,0.00,OVC,,0.00,WeatherDisplay:10.37,2013-04-12 08:02:00,
2013-04-12 04:07:00,34.4,16.7,30.24,NNW,332,13.8,13.8,48,0.00,OVC,,0.00,WeatherDisplay:10.37,2013-04-12 08:07:00,
2013-04-12 04:12:00,34.3,17.1,30.24,North,0,9.2,9.2,49,0.00,OVC,,0.00,WeatherDisplay:10.37,2013-04-12 08:12:00,
2013-04-12 04:17:00,34.3,18.0,30.24,NNE,28,8.1,0.0,51,0.00,OVC,,0.00,WeatherDisplay:10.37,2013-04-12 08:17:00,
2013-04-12 04:22:00,34.3,17.1,30.24,NNE,18,10.4,10.4,49,0.00,OVC,,0.00,WeatherDisplay:10.37,2013-04-12 08:22:00,
2013-04-12 04:27:00,34.2,17.5,30.23,North,0,13.0,13.0,50,0.00,OVC,,0.00,WeatherDisplay:10.37,2013-04-12 08:27:00,
2013-04-12 04:32:00,34.2,17.5,30.24,North,359,13.8,13.8,50,0.00,OVC,,0.00,WeatherDisplay:10.37,2013-04-12 08:32:00,
2013-04-12 04:38:00,34.0,17.3,30.23,North,0,10.4,10.4,50,0.00,OVC,,0.00,WeatherDisplay:10.37,2013-04-12 08:38:00,
2013-04-12 04:43:00,34.0,17.3,30.23,NNE,17,10.4,10.4,50,0.00,OVC,,0.00,WeatherDisplay:10.37,2013-04-12 08:43:00,
2013-04-12 04:48:00,34.0,17.7,30.23,NE,35,16.1,16.1,51,0.00,OVC,,0.00,WeatherDisplay:10.37,2013-04-12 08:48:00,
2013-04-12 04:53:00,33.9,17.7,30.24,NNE,21,10.4,10.4,51,0.00,OVC,,0.00,WeatherDisplay:10.37,2013-04-12 08:53:00,
2013-04-12 04:58:00,33.9,17.7,30.24,NNE,30,13.8,13.8,51,0.00,OVC,,0.00,WeatherDisplay:10.37,2013-04-12 08:58:00,
2013-04-12 05:03:00,33.9,18.1,30.25,NNE,30,13.8,13.8,52,0.00,OVC,,0.00,WeatherDisplay:10.37,2013-04-12 09:03:00,
2013-04-12 05:08:00,33.9,18.1,30.25,NW,325,8.1,8.1,52,0.00,OVC,,0.00,WeatherDisplay:10.37,2013-04-12 09:08:00,
2013-04-12 05:13:00,33.7,17.5,30.25,North,0,11.5,11.5,51,0.00,OVC,,0.00,WeatherDisplay:10.37,2013-04-12 09:13:00,
2013-04-12 05:18:00,33.7,17.5,30.25,NNE,16,11.5,11.5,51,0.00,OVC,,0.00,WeatherDisplay:10.37,2013-04-12 09:18:00,
2013-04-12 05:23:00,33.7,17.9,30.25,NNE,14,8.1,8.1,52,0.00,OVC,,0.00,WeatherDisplay:10.37,2013-04-12 09:23:00,
2013-04-12 05:28:00,33.7,18.4,30.25,North,0,5.8,5.8,53,0.00,OVC,,0.00,WeatherDisplay:10.37,2013-04-12 09:28:00,
2013-04-12 05:33:00,33.7,18.4,30.25,NNE,23,5.8,5.8,53,0.00,OVC,,0.00,WeatherDisplay:10.37,2013-04-12 09:33:00,
2013-04-12 05:38:00,33.6,18.7,30.26,NNE,18,3.5,3.5,54,0.00,OVC,,0.00,WeatherDisplay:10.37,2013-04-12 09:38:00,
2013-04-12 05:43:00,33.6,17.8,30.26,NE,34,8.1,8.1,52,0.00,OVC,,0.00,WeatherDisplay:10.37,2013-04-12 09:43:00,
2013-04-12 05:48:00,33.4,18.1,30.26,NNE,14,16.1,16.1,53,0.00,OVC,,0.00,WeatherDisplay:10.37,2013-04-12 09:48:00,
2013-04-12 05:53:00,33.4,18.1,30.26,NNE,28,5.8,5.8,53,0.00,OVC,,0.00,WeatherDisplay:10.37,2013-04-12 09:53:00,
2013-04-12 05:58:00,33.4,18.1,30.26,NNE,23,8.1,8.1,53,0.00,OVC,,0.00,WeatherDisplay:10.37,2013-04-12 09:58:00,
2013-04-12 06:03:00,33.4,17.6,30.25,NE,37,10.4,10.4,52,0.00,OVC,,0.00,WeatherDisplay:10.37,2013-04-12 10:03:00,
2013-04-12 06:08:00,33.3,18.0,30.25,North,357,9.2,9.2,53,0.00,OVC,,0.00,WeatherDisplay:10.37,2013-04-12 10:08:00,
2013-04-12 06:13:00,33.3,18.0,30.26,NNE,23,8.1,8.1,53,0.00,OVC,,0.00,WeatherDisplay:10.37,2013-04-12 10:13:00,
2013-04-12 06:18:00,33.3,18.0,30.25,NNE,16,8.1,8.1,53,0.00,OVC,,0.00,WeatherDisplay:10.37,2013-04-12 10:18:00,
2013-04-12 06:23:00,33.3,18.4,30.25,North,7,3.5,3.5,54,0.00,OVC,,0.00,WeatherDisplay:10.37,2013-04-12 10:23:00,
2013-04-12 06:28:00,33.3,18.4,30.25,North,6,2.3,2.3,54,0.00,OVC,,0.00,WeatherDisplay:10.37,2013-04-12 10:28:00,
2013-04-12 06:33:00,33.3,18.9,30.25,NNE,24,6.9,6.9,55,0.00,OVC,,0.00,WeatherDisplay:10.37,2013-04-12 10:33:00,
2013-04-12 06:38:00,33.3,18.4,30.26,NNE,27,6.5,6.5,54,0.00,OVC,,0.00,WeatherDisplay:10.37,2013-04-12 10:38:00,
2013-04-12 06:43:00,33.3,19.7,30.26,NNW,340,3.5,3.5,57,0.00,OVC,,0.00,WeatherDisplay:10.37,2013-04-12 10:43:00,
2013-04-12 06:48:00,33.3,19.7,30.26,NNE,24,1.3,1.3,57,0.00,OVC,,0.00,WeatherDisplay:10.37,2013-04-12 10:48:00,
2013-04-12 06:53:00,33.3,19.7,30.26,NW,320,2.3,2.3,57,0.00,OVC,,0.00,WeatherDisplay:10.37,2013-04-12 10:53:00,
2013-04-12 06:58:00,33.3,19.7,30.26,NNE,28,6.9,6.9,57,0.00,OVC,,0.00,WeatherDisplay:10.37,2013-04-12 10:58:00,
2013-04-12 07:03:00,33.3,19.3,30.26,North,3,6.9,6.9,56,0.00,OVC,,0.00,WeatherDisplay:10.37,2013-04-12 11:03:00,
2013-04-12 07:08:00,33.3,20.1,30.26,North,3,2.3,2.3,58,0.00,OVC,,0.00,WeatherDisplay:10.37,2013-04-12 11:08:00,
2013-04-12 07:13:00,33.4,19.8,30.26,North,3,2.3,2.3,57,0.00,OVC,,0.00,WeatherDisplay:10.37,2013-04-12 11:13:00,
2013-04-12 07:18:00,33.4,19.8,30.26,NE,52,6.9,6.9,57,0.00,OVC,,0.00,WeatherDisplay:10.37,2013-04-12 11:18:00,
2013-04-12 07:23:00,33.6,19.1,30.26,North,0,6.9,6.9,55,0.00,OVC,,0.00,WeatherDisplay:10.37,2013-04-12 11:23:00,
2013-04-12 07:28:00,33.6,20.0,30.26,North,349,5.8,5.8,57,0.00,OVC,,0.00,WeatherDisplay:10.37,2013-04-12 11:28:00,
2013-04-12 07:33:00,33.6,20.0,30.26,NE,40,2.3,2.3,57,0.00,OVC,,0.00,WeatherDisplay:10.37,2013-04-12 11:33:00,
2013-04-12 07:39:00,33.6,20.0,30.26,NNE,17,8.1,8.1,57,0.00,OVC,,0.00,WeatherDisplay:10.37,2013-04-12 11:39:00,
2013-04-12 07:44:00,33.4,18.9,30.26,NNE,24,6.9,6.9,55,0.00,OVC,,0.00,WeatherDisplay:10.37,2013-04-12 11:44:00,
2013-04-12 07:49:00,33.6,20.0,30.26,NNE,24,3.5,3.5,57,0.00,OVC,,0.00,WeatherDisplay:10.37,2013-04-12 11:49:00,
2013-04-12 07:54:00,33.6,20.0,30.25,North,10,6.5,6.5,57,0.00,OVC,,0.00,WeatherDisplay:10.37,2013-04-12 11:54:00,
2013-04-12 07:59:00,33.6,19.6,30.25,NNE,25,3.5,3.5,56,0.00,OVC,,0.00,WeatherDisplay:10.37,2013-04-12 11:59:00,
2013-04-12 08:04:00,33.7,20.5,30.25,NE,45,3.5,3.5,58,0.00,OVC,,0.00,WeatherDisplay:10.37,2013-04-12 12:04:00,
2013-04-12 08:09:00,33.7,20.5,30.25,NE,37,2.6,2.6,58,0.00,OVC,,0.00,WeatherDisplay:10.37,2013-04-12 12:09:00,
2013-04-12 08:14:00,33.7,20.1,30.25,ENE,69,3.5,3.5,57,0.00,OVC,,0.00,WeatherDisplay:10.37,2013-04-12 12:14:00,
2013-04-12 08:19:00,33.7,19.7,30.24,NNE,20,9.2,9.2,56,0.00,OVC,,0.00,WeatherDisplay:10.37,2013-04-12 12:19:00,
2013-04-12 08:24:00,33.7,20.5,30.24,NNE,20,6.9,6.9,58,0.00,OVC,,0.00,WeatherDisplay:10.37,2013-04-12 12:24:00,
2013-04-12 08:29:00,33.7,20.5,30.24,NNE,17,10.4,10.4,58,0.00,OVC,,0.00,WeatherDisplay:10.37,2013-04-12 12:29:00,
2013-04-12 08:34:00,33.7,21.3,30.24,North,8,3.5,3.5,60,0.00,OVC,,0.00,WeatherDisplay:10.37,2013-04-12 12:34:00,
2013-04-12 08:39:00,33.9,22.2,30.24,NNW,336,2.3,2.3,62,0.00,OVC,,0.00,WeatherDisplay:10.37,2013-04-12 12:39:00,
2013-04-12 08:44:00,33.9,22.2,30.23,NNE,13,3.5,3.5,62,0.00,OVC,,0.00,WeatherDisplay:10.37,2013-04-12 12:44:00,
2013-04-12 08:49:00,33.9,21.1,30.23,NE,38,5.8,5.8,59,0.00,OVC,,0.00,WeatherDisplay:10.37,2013-04-12 12:49:00,
2013-04-12 08:54:00,33.9,21.9,30.22,NE,37,3.5,3.5,61,0.00,OVC,,0.00,WeatherDisplay:10.37,2013-04-12 12:54:00,
2013-04-12 08:59:00,34.0,22.0,30.22,NE,41,6.9,6.9,61,0.00,OVC,,0.00,WeatherDisplay:10.37,2013-04-12 12:59:00,
2013-04-12 09:04:00,33.9,21.1,30.22,NNE,17,8.1,8.1,59,0.00,OVC,,0.00,WeatherDisplay:10.37,2013-04-12 13:04:00,
2013-04-12 09:09:00,33.9,21.9,30.22,NE,54,8.1,8.1,61,0.00,OVC,,0.00,WeatherDisplay:10.37,2013-04-12 13:09:00,
2013-04-12 09:14:00,33.9,21.5,30.22,ENE,66,6.9,6.9,60,0.00,OVC,,0.00,WeatherDisplay:10.37,2013-04-12 13:14:00,
2013-04-12 09:19:00,33.9,21.9,30.22,ENE,76,8.1,8.1,61,0.00,OVC,,0.00,WeatherDisplay:10.37,2013-04-12 13:19:00,
2013-04-12 09:24:00,34.0,22.0,30.21,NE,54,3.5,3.5,61,0.00,OVC,,0.00,WeatherDisplay:10.37,2013-04-12 13:24:00,
2013-04-12 09:29:00,34.0,22.0,30.21,ENE,72,9.2,9.2,61,0.00,OVC,,0.00,WeatherDisplay:10.37,2013-04-12 13:29:00,
2013-04-12 09:34:00,34.0,23.1,30.21,ENE,65,8.1,8.1,64,0.00,OVC,,0.00,WeatherDisplay:10.37,2013-04-12 13:34:00,
2013-04-12 09:39:00,34.2,23.3,30.21,NW,320,2.3,2.3,64,0.00,OVC,,0.00,WeatherDisplay:10.37,2013-04-12 13:39:00,
2013-04-12 09:44:00,34.2,22.5,30.20,East,80,9.2,9.2,62,0.00,OVC,,0.00,WeatherDisplay:10.37,2013-04-12 13:44:00,
2013-04-12 09:49:00,34.3,23.0,30.21,ENE,75,8.1,8.1,63,0.00,OVC,,0.00,WeatherDisplay:10.37,2013-04-12 13:49:00,
2013-04-12 09:54:00,34.3,23.7,30.21,ENE,75,3.5,3.5,65,0.00,OVC,,0.00,WeatherDisplay:10.37,2013-04-12 13:54:00,
2013-04-12 09:59:00,34.4,23.5,30.20,ENE,72,9.2,9.2,64,0.00,OVC,,0.00,WeatherDisplay:10.37,2013-04-12 13:59:00,
2013-04-12 10:04:00,34.4,23.1,30.20,ENE,65,6.9,6.9,63,0.00,OVC,,0.00,WeatherDisplay:10.37,2013-04-12 14:04:00,
2013-04-12 10:09:00,34.4,23.8,30.20,ENE,64,8.1,8.1,65,0.00,OVC,,0.00,WeatherDisplay:10.37,2013-04-12 14:09:00,
2013-04-12 10:14:00,34.4,23.8,30.20,NE,42,6.9,6.9,65,0.00,OVC,,0.00,WeatherDisplay:10.37,2013-04-12 14:14:00,
2013-04-12 10:19:00,34.6,23.7,30.20,NE,51,5.8,5.8,64,0.00,OVC,,0.00,WeatherDisplay:10.37,2013-04-12 14:19:00,
2013-04-12 10:24:00,34.6,24.0,30.20,ENE,73,9.2,9.2,65,0.00,OVC,,0.00,WeatherDisplay:10.37,2013-04-12 14:24:00,
2013-04-12 10:29:00,34.7,24.5,30.20,ENE,73,12.7,12.7,66,0.00,OVC,,0.00,WeatherDisplay:10.37,2013-04-12 14:29:00,
2013-04-12 10:34:00,34.9,23.9,30.20,ENE,62,10.4,10.4,64,0.00,OVC,,0.00,WeatherDisplay:10.37,2013-04-12 14:34:00,
2013-04-12 10:40:00,34.9,24.7,30.20,ENE,73,8.1,8.1,66,0.00,OVC,,0.00,WeatherDisplay:10.37,2013-04-12 14:40:00,
2013-04-12 10:45:00,34.9,24.7,30.19,ENE,61,9.2,9.2,66,0.00,OVC,,0.00,WeatherDisplay:10.37,2013-04-12 14:45:00,
2013-04-12 10:50:00,34.9,25.0,30.18,ENE,71,10.4,10.4,67,0.00,OVC,,0.00,WeatherDisplay:10.37,2013-04-12 14:50:00,
2013-04-12 10:55:00,35.2,25.7,30.18,ENE,71,9.2,9.2,68,0.00,OVC,,0.00,WeatherDisplay:10.37,2013-04-12 14:55:00,
2013-04-12 11:00:00,35.2,25.0,30.18,ENE,68,3.5,4.8,66,0.00,OVC,,0.00,WeatherDisplay:10.37,2013-04-12 15:00:00,
2013-04-12 11:05:00,35.3,26.8,30.17,ENE,65,11.5,11.5,71,0.00,OVC,,0.00,WeatherDisplay:10.37,2013-04-12 15:05:00,
2013-04-12 11:10:00,35.3,25.8,30.17,ENE,73,8.1,8.1,68,0.00,OVC,,0.00,WeatherDisplay:10.37,2013-04-12 15:10:00,
2013-04-12 11:15:00,35.4,25.9,30.17,East,79,10.4,10.4,68,0.00,OVC,,0.00,WeatherDisplay:10.37,2013-04-12 15:15:00,
2013-04-12 11:20:00,35.3,25.4,30.17,ENE,66,8.1,8.1,67,0.00,OVC,,0.00,WeatherDisplay:10.37,2013-04-12 15:20:00,
2013-04-12 11:25:00,35.4,26.2,30.17,ENE,73,13.8,13.8,69,0.00,OVC,,0.00,WeatherDisplay:10.37,2013-04-12 15:25:00,
2013-04-12 11:30:00,35.3,25.8,30.17,East,86,12.7,12.7,68,0.00,OVC,,0.00,WeatherDisplay:10.37,2013-04-12 15:30:00,
2013-04-12 11:35:00,35.3,26.1,30.17,ENE,78,17.3,17.3,69,0.00,OVC,,0.00,WeatherDisplay:10.37,2013-04-12 15:35:00,
2013-04-12 11:40:00,35.4,26.2,30.17,ENE,73,12.7,12.7,69,0.00,OVC,,0.00,WeatherDisplay:10.37,2013-04-12 15:40:00,
2013-04-12 11:45:00,35.6,27.5,30.16,ENE,72,10.4,10.4,72,0.00,OVC,,0.00,WeatherDisplay:10.37,2013-04-12 15:45:00,
2013-04-12 11:50:00,35.6,27.1,30.16,East,82,16.1,16.1,71,0.00,OVC,,0.00,WeatherDisplay:10.37,2013-04-12 15:50:00,
2013-04-12 11:55:00,35.4,26.9,30.15,ENE,78,10.4,10.4,71,0.00,OVC,,0.00,WeatherDisplay:10.37,2013-04-12 15:55:00,
2013-04-12 12:00:00,35.4,26.9,30.15,ENE,76,13.8,13.8,71,0.00,OVC,,0.00,WeatherDisplay:10.37,2013-04-12 16:00:00,
2013-04-12 12:05:00,35.4,27.6,30.15,ENE,68,10.4,10.4,73,0.00,OVC,,0.00,WeatherDisplay:10.37,2013-04-12 16:05:00,
2013-04-12 12:10:00,35.7,28.2,30.14,NNE,28,12.7,12.7,74,0.00,OVC,,0.00,WeatherDisplay:10.37,2013-04-12 16:10:00,
2013-04-12 12:15:00,35.6,27.8,30.14,NE,54,13.8,13.8,73,0.00,OVC,,0.00,WeatherDisplay:10.37,2013-04-12 16:15:00,
2013-04-12 12:20:00,35.6,27.8,30.14,East,79,16.1,16.1,73,0.00,OVC,,0.00,WeatherDisplay:10.37,2013-04-12 16:20:00,
2013-04-12 12:25:00,35.6,28.1,30.14,ENE,71,13.8,13.8,74,0.00,OVC,,0.00,WeatherDisplay:10.37,2013-04-12 16:25:00,
2013-04-12 12:30:00,35.6,28.5,30.14,ENE,69,10.4,10.4,75,0.00,OVC,,0.00,WeatherDisplay:10.37,2013-04-12 16:30:00,
2013-04-12 12:35:00,35.6,28.8,30.14,ENE,78,20.7,20.7,76,0.00,OVC,,0.00,WeatherDisplay:10.37,2013-04-12 16:35:00,
2013-04-12 12:40:00,35.6,28.5,30.14,ENE,65,23.0,23.0,75,0.00,OVC,,0.00,WeatherDisplay:10.37,2013-04-12 16:40:00,
2013-04-12 12:45:00,35.4,28.6,30.14,East,82,17.3,17.3,76,0.00,OVC,,0.00,WeatherDisplay:10.37,2013-04-12 16:45:00,
2013-04-12 12:50:00,35.6,29.4,30.14,ENE,71,15.6,15.6,78,0.00,OVC,,0.00,WeatherDisplay:10.37,2013-04-12 16:50:00,
2013-04-12 12:55:00,35.7,29.8,30.14,ENE,65,12.7,12.7,79,0.00,OVC,,0.00,WeatherDisplay:10.37,2013-04-12 16:55:00,
2013-04-12 13:00:00,35.9,29.7,30.13,ENE,78,16.1,16.1,78,0.00,OVC,,0.00,WeatherDisplay:10.37,2013-04-12 17:00:00,
2013-04-12 13:05:00,36.0,30.4,30.13,ESE,113,16.1,16.1,80,0.00,OVC,,0.00,WeatherDisplay:10.37,2013-04-12 17:05:00,
2013-04-12 13:10:00,35.9,30.3,30.13,NE,52,20.7,20.7,80,0.00,OVC,,0.00,WeatherDisplay:10.37,2013-04-12 17:10:00,
2013-04-12 13:15:00,35.3,30.4,30.14,NE,35,17.3,17.3,82,0.00,OVC,,0.00,WeatherDisplay:10.37,2013-04-12 17:15:00,
2013-04-12 13:20:00,35.0,30.7,30.15,ENE,69,12.7,12.7,84,0.00,OVC,,0.00,WeatherDisplay:10.37,2013-04-12 17:20:00,
2013-04-12 13:25:00,34.9,31.1,30.14,ENE,75,10.4,10.4,86,0.00,OVC,,0.00,WeatherDisplay:10.37,2013-04-12 17:25:00,
2013-04-12 13:30:00,34.9,31.7,30.14,NE,54,10.4,10.4,88,0.01,RA,,0.01,WeatherDisplay:10.37,2013-04-12 17:30:00,
2013-04-12 13:35:00,34.7,32.1,30.14,East,79,9.2,9.2,90,0.01,RA,,0.01,WeatherDisplay:10.37,2013-04-12 17:35:00,
2013-04-12 13:41:00,34.6,32.2,30.14,ENE,72,13.8,13.8,91,0.01,OVC,,0.01,WeatherDisplay:10.37,2013-04-12 17:41:00,
2013-04-12 13:47:00,34.4,32.6,30.13,ENE,66,10.4,10.4,93,0.02,RA,,0.03,WeatherDisplay:10.37,2013-04-12 17:47:00,
2013-04-12 13:53:00,34.3,32.8,30.11,East,83,17.3,17.3,94,0.03,RA,,0.03,WeatherDisplay:10.37,2013-04-12 17:53:00,
2013-04-12 13:58:00,34.3,33.0,30.12,ENE,69,11.5,11.5,95,0.04,RA,,0.04,WeatherDisplay:10.37,2013-04-12 17:58:00,
2013-04-12 14:04:00,34.2,32.9,30.12,ENE,73,10.4,10.4,95,0.05,-RA,,0.05,WeatherDisplay:10.37,2013-04-12 18:04:00,
2013-04-12 14:09:00,34.2,33.4,30.12,ENE,64,9.2,9.2,97,0.05,-RA,,0.06,WeatherDisplay:10.37,2013-04-12 18:09:00,
2013-04-12 14:14:00,34.2,33.4,30.12,ENE,78,10.4,10.4,97,0.06,-RA,,0.06,WeatherDisplay:10.37,2013-04-12 18:14:00,
2013-04-12 14:20:00,34.0,33.2,30.12,ENE,65,9.2,9.2,97,0.07,-RA,,0.07,WeatherDisplay:10.37,2013-04-12 18:20:00,
2013-04-12 14:25:00,33.9,33.4,30.12,ENE,65,9.2,9.2,98,0.08,-RA,,0.08,WeatherDisplay:10.37,2013-04-12 18:25:00,
2013-04-12 15:26:00,33.3,33.3,30.07,East,95,13.8,13.8,100,0.08,-RA,,0.16,WeatherDisplay:10.37,2013-04-12 19:26:00,
2013-04-12 15:32:00,33.3,33.3,30.08,East,97,3.5,3.5,100,0.06,-RA,,0.16,WeatherDisplay:10.37,2013-04-12 19:32:00,
2013-04-12 15:38:00,33.1,33.1,30.08,ESE,120,12.7,12.7,100,0.05,-RA,,0.17,WeatherDisplay:10.37,2013-04-12 19:38:00,
2013-04-12 15:43:00,33.3,33.3,30.09,ESE,103,13.8,13.8,100,0.05,-RA,,0.17,WeatherDisplay:10.37,2013-04-12 19:43:00,
2013-04-12 15:48:00,33.3,33.3,30.08,East,85,9.2,9.2,100,0.04,-RA,,0.17,WeatherDisplay:10.37,2013-04-12 19:48:00,
2013-04-12 15:53:00,33.3,33.3,30.09,East,99,1.2,1.2,100,0.04,-RA,,0.17,WeatherDisplay:10.37,2013-04-12 19:53:00,
2013-04-12 15:58:00,33.3,33.3,30.08,East,85,10.4,10.4,100,0.05,-RA,,0.18,WeatherDisplay:10.37,2013-04-12 19:58:00,
2013-04-12 16:03:00,33.1,33.1,30.08,ENE,62,8.1,8.1,100,0.05,-RA,,0.19,WeatherDisplay:10.37,2013-04-12 20:03:00,
2013-04-12 16:08:00,33.1,33.1,30.08,ENE,75,7.8,7.8,100,0.04,-RA,,0.19,WeatherDisplay:10.37,2013-04-12 20:08:00,
2013-04-12 16:13:00,33.1,33.1,30.07,ENE,76,18.2,18.2,100,0.04,-RA,,0.19,WeatherDisplay:10.37,2013-04-12 20:13:00,
2013-04-12 16:18:00,33.3,33.3,30.08,East,90,10.4,10.4,100,0.04,-RA,,0.19,WeatherDisplay:10.37,2013-04-12 20:18:00,
2013-04-12 16:23:00,33.3,33.3,30.07,ENE,73,12.7,12.7,100,0.04,-RA,,0.20,WeatherDisplay:10.37,2013-04-12 20:23:00,
2013-04-12 16:28:00,33.3,33.3,30.07,ENE,73,9.2,9.2,100,0.04,-RA,,0.20,WeatherDisplay:10.37,2013-04-12 20:28:00,
2013-04-12 16:33:00,33.3,33.3,30.07,ENE,73,9.1,9.1,100,0.04,-RA,,0.20,WeatherDisplay:10.37,2013-04-12 20:33:00,
2013-04-12 16:38:00,33.3,33.3,30.07,ENE,64,9.2,9.2,100,0.03,-RA,,0.20,WeatherDisplay:10.37,2013-04-12 20:38:00,
2013-04-12 16:43:00,33.3,33.3,30.06,East,79,17.3,17.3,100,0.04,-RA,,0.21,WeatherDisplay:10.37,2013-04-12 20:43:00,
2013-04-12 16:48:00,33.3,33.3,30.06,ENE,66,6.9,6.9,100,0.04,-RA,,0.21,WeatherDisplay:10.37,2013-04-12 20:48:00,
2013-04-12 16:53:00,33.3,33.3,30.06,NNE,13,6.9,6.9,100,0.04,-RA,,0.21,WeatherDisplay:10.37,2013-04-12 20:53:00,
2013-04-12 16:58:00,33.1,33.1,30.06,NNE,30,8.1,8.1,100,0.03,-RA,,0.21,WeatherDisplay:10.37,2013-04-12 20:58:00,
2013-04-12 17:03:00,33.1,33.1,30.05,North,11,9.2,9.2,100,0.02,OVC,,0.21,WeatherDisplay:10.37,2013-04-12 21:03:00,
2013-04-12 17:08:00,33.1,33.1,30.05,ENE,62,9.2,9.2,100,0.02,OVC,,0.21,WeatherDisplay:10.37,2013-04-12 21:08:00,
2013-04-12 17:13:00,33.1,33.1,30.05,ENE,76,9.2,9.2,100,0.02,OVC,,0.21,WeatherDisplay:10.37,2013-04-12 21:13:00,
2013-04-12 17:18:00,33.1,33.1,30.05,ENE,59,8.1,8.1,100,0.02,OVC,,0.21,WeatherDisplay:10.37,2013-04-12 21:18:00,
2013-04-12 17:23:00,33.3,33.3,30.05,North,8,12.7,12.7,100,0.01,OVC,,0.21,WeatherDisplay:10.37,2013-04-12 21:23:00,
2013-04-12 17:28:00,33.1,33.1,30.04,ENE,72,5.8,5.8,100,0.01,OVC,,0.21,WeatherDisplay:10.37,2013-04-12 21:28:00,
2013-04-12 17:33:00,33.1,33.1,30.04,ENE,75,7.8,7.8,100,0.01,OVC,,0.21,WeatherDisplay:10.37,2013-04-12 21:33:00,
2013-04-12 17:38:00,33.1,33.1,30.04,East,80,6.9,6.9,100,0.01,OVC,,0.21,WeatherDisplay:10.37,2013-04-12 21:38:00,
2013-04-12 17:43:00,32.8,32.8,30.04,East,88,13.8,13.8,100,0.00,OVC,,0.21,WeatherDisplay:10.37,2013-04-12 21:43:00,
2013-04-12 17:48:00,33.0,33.0,30.05,ENE,72,9.2,9.2,100,0.00,OVC,,0.21,WeatherDisplay:10.37,2013-04-12 21:48:00,
2013-04-12 17:53:00,32.8,32.8,30.05,ENE,59,10.4,10.4,100,0.00,OVC,,0.22,WeatherDisplay:10.37,2013-04-12 21:53:00,
2013-04-12 17:58:00,32.7,32.7,30.05,ENE,78,10.4,10.4,100,0.01,RA,,0.22,WeatherDisplay:10.37,2013-04-12 21:58:00,
2013-04-12 18:03:00,32.5,32.5,30.05,ENE,71,9.2,9.2,100,0.01,-SN,,0.22,WeatherDisplay:10.37,2013-04-12 22:03:00,
2013-04-12 18:08:00,32.5,32.5,30.04,NNE,18,11.5,11.5,100,0.01,-SN,,0.22,WeatherDisplay:10.37,2013-04-12 22:08:00,
2013-04-12 18:13:00,32.5,32.5,30.03,East,80,17.3,17.3,100,0.02,-SN,,0.23,WeatherDisplay:10.37,2013-04-12 22:13:00,
2013-04-12 18:18:00,32.7,32.7,30.03,ENE,58,14.3,14.3,100,0.02,-SN,,0.23,WeatherDisplay:10.37,2013-04-12 22:18:00,
2013-04-12 18:23:00,32.8,32.8,30.03,ENE,69,13.0,13.0,100,0.02,-SN,,0.23,WeatherDisplay:10.37,2013-04-12 22:23:00,
2013-04-12 18:28:00,32.8,32.8,30.04,ENE,62,10.4,11.3,100,0.02,-SN,,0.23,WeatherDisplay:10.37,2013-04-12 22:28:00,
2013-04-12 18:33:00,32.8,32.8,30.03,NE,37,9.2,9.2,100,0.02,-SN,,0.23,WeatherDisplay:10.37,2013-04-12 22:33:00,
2013-04-12 18:38:00,32.7,32.7,30.03,ENE,69,11.7,11.7,100,0.02,-SN,,0.23,WeatherDisplay:10.37,2013-04-12 22:38:00,
2013-04-12 18:43:00,32.8,32.8,30.03,ENE,69,11.5,11.5,100,0.02,-SN,,0.23,WeatherDisplay:10.37,2013-04-12 22:43:00,
2013-04-12 18:48:00,32.7,32.7,30.02,NNE,18,8.1,8.1,100,0.02,-SN,,0.23,WeatherDisplay:10.37,2013-04-12 22:48:00,
2013-04-12 18:53:00,32.5,32.5,30.02,ENE,64,12.7,12.7,100,0.03,-SN,,0.24,WeatherDisplay:10.37,2013-04-12 22:53:00,
2013-04-12 18:58:00,32.5,32.5,30.02,NE,54,5.8,5.8,100,0.02,-SN,,0.24,WeatherDisplay:10.37,2013-04-12 22:58:00,
2013-04-12 19:03:00,32.4,32.4,30.02,NE,51,3.5,3.5,100,0.02,OVC,,0.24,WeatherDisplay:10.37,2013-04-12 23:03:00,
2013-04-12 19:08:00,32.2,32.2,30.01,ENE,68,9.2,9.2,100,0.02,OVC,,0.24,WeatherDisplay:10.37,2013-04-12 23:08:00,
2013-04-12 19:13:00,32.2,32.2,30.01,NE,55,6.9,6.9,100,0.01,OVC,,0.24,WeatherDisplay:10.37,2013-04-12 23:13:00,
2013-04-12 19:18:00,32.1,32.1,30.00,ENE,66,6.9,6.9,100,0.02,RA,,0.25,WeatherDisplay:10.37,2013-04-12 23:18:00,
2013-04-12 19:23:00,32.1,32.1,30.00,NE,42,8.1,8.1,100,0.02,RA,,0.25,WeatherDisplay:10.37,2013-04-12 23:23:00,
2013-04-12 19:28:00,32.2,32.2,30.00,ENE,68,10.4,10.4,100,0.03,RA,,0.26,WeatherDisplay:10.37,2013-04-12 23:28:00,
2013-04-12 19:33:00,32.1,32.1,29.99,North,0,9.2,9.2,100,0.03,RA,,0.26,WeatherDisplay:10.37,2013-04-12 23:33:00,
2013-04-12 19:38:00,32.1,32.1,29.99,ENE,65,10.4,10.4,100,0.03,OVC,,0.26,WeatherDisplay:10.37,2013-04-12 23:38:00,
2013-04-12 19:43:00,32.2,32.2,29.99,NE,55,13.8,13.8,100,0.04,RA,,0.27,WeatherDisplay:10.37,2013-04-12 23:43:00,
2013-04-12 19:48:00,32.5,32.5,29.99,ENE,64,9.2,9.8,100,0.04,RA,,0.27,WeatherDisplay:10.37,2013-04-12 23:48:00,
2013-04-12 19:53:00,32.5,32.5,29.98,ENE,69,9.2,9.2,100,0.04,RA,,0.28,WeatherDisplay:10.37,2013-04-12 23:53:00,
2013-04-12 19:58:00,32.4,32.4,29.98,NE,38,8.1,8.1,100,0.04,RA,,0.28,WeatherDisplay:10.37,2013-04-12 23:58:00,
2013-04-12 20:03:00,32.4,32.4,29.98,NE,48,11.5,11.5,100,0.04,-SN,,0.28,WeatherDisplay:10.37,2013-04-13 00:03:00,
2013-04-12 20:09:00,32.5,32.5,29.98,ENE,76,12.7,12.7,100,0.04,-SN,,0.28,WeatherDisplay:10.37,2013-04-13 00:09:00,
2013-04-12 20:14:00,32.7,32.7,29.97,ENE,58,8.1,8.1,100,0.04,-SN,,0.28,WeatherDisplay:10.37,2013-04-13 00:14:00,
2013-04-12 20:19:00,32.8,32.8,29.97,ENE,69,16.1,16.1,100,0.03,-SN,,0.28,WeatherDisplay:10.37,2013-04-13 00:19:00,
2013-04-12 20:24:00,33.0,33.0,29.98,ENE,71,13.8,13.8,100,0.04,-SN,,0.29,WeatherDisplay:10.37,2013-04-13 00:24:00,
2013-04-12 20:29:00,33.0,33.0,29.98,North,0,8.1,8.1,100,0.03,-SN,,0.29,WeatherDisplay:10.37,2013-04-13 00:29:00,
2013-04-12 20:34:00,33.0,33.0,29.97,ENE,72,9.2,9.2,100,0.03,-SN,,0.29,WeatherDisplay:10.37,2013-04-13 00:34:00,
2013-04-12 20:39:00,32.8,32.8,29.97,ENE,58,6.9,6.9,100,0.03,-SN,,0.29,WeatherDisplay:10.37,2013-04-13 00:39:00,
2013-04-12 20:44:00,32.8,32.8,29.97,ENE,73,13.8,13.8,100,0.02,-SN,,0.29,WeatherDisplay:10.37,2013-04-13 00:44:00,
2013-04-12 20:49:00,33.0,33.0,29.97,NNE,28,9.2,9.2,100,0.02,-SN,,0.29,WeatherDisplay:10.37,2013-04-13 00:49:00,
2013-04-12 20:54:00,33.0,33.0,29.97,NNE,17,6.9,6.9,100,0.01,-SN,,0.29,WeatherDisplay:10.37,2013-04-13 00:54:00,
2013-04-12 20:59:00,33.1,33.1,29.97,NNE,18,9.2,9.2,100,0.01,-SN,,0.29,WeatherDisplay:10.37,2013-04-13 00:59:00,
2013-04-12 21:04:00,33.0,33.0,29.97,East,79,12.7,12.7,100,0.02,-SN,,0.30,WeatherDisplay:10.37,2013-04-13 01:04:00,
2013-04-12 21:09:00,33.1,33.1,29.96,NE,42,13.8,13.8,100,0.02,-SN,,0.30,WeatherDisplay:10.37,2013-04-13 01:09:00,
2013-04-12 21:14:00,33.0,33.0,29.96,NE,51,6.9,6.9,100,0.02,-SN,,0.30,WeatherDisplay:10.37,2013-04-13 01:14:00,
2013-04-12 21:19:00,33.0,33.0,29.95,NNW,337,6.9,6.9,100,0.02,-SN,,0.30,WeatherDisplay:10.37,2013-04-13 01:19:00,
2013-04-12 21:24:00,32.8,32.8,29.95,ENE,71,8.1,8.1,100,0.01,-SN,,0.30,WeatherDisplay:10.37,2013-04-13 01:24:00,
2013-04-12 21:29:00,33.0,33.0,29.96,North,3,6.9,6.9,100,0.02,-SN,,0.31,WeatherDisplay:10.37,2013-04-13 01:29:00,
2013-04-12 21:34:00,33.0,33.0,29.96,NNE,25,9.2,9.2,100,0.02,-SN,,0.31,WeatherDisplay:10.37,2013-04-13 01:34:00,
2013-04-12 21:39:00,32.8,32.8,29.95,NNE,24,3.5,3.5,100,0.02,-SN,,0.31,WeatherDisplay:10.37,2013-04-13 01:39:00,
2013-04-12 21:44:00,33.0,33.0,29.95,NE,38,10.4,10.4,100,0.02,-SN,,0.31,WeatherDisplay:10.37,2013-04-13 01:44:00,
2013-04-12 21:49:00,33.0,33.0,29.95,NNE,23,6.9,6.9,100,0.02,-SN,,0.31,WeatherDisplay:10.37,2013-04-13 01:49:00,
2013-04-12 21:54:00,33.0,33.0,29.94,NE,52,8.1,8.1,100,0.02,-SN,,0.31,WeatherDisplay:10.37,2013-04-13 01:54:00,
2013-04-12 21:59:00,33.0,33.0,29.94,North,6,10.4,10.4,100,0.03,-SN,,0.32,WeatherDisplay:10.37,2013-04-13 01:59:00,
2013-04-12 22:04:00,33.0,33.0,29.94,NNE,21,3.5,3.7,100,0.02,RA,,0.32,WeatherDisplay:10.37,2013-04-13 02:04:00,
2013-04-12 22:09:00,33.0,33.0,29.94,NE,45,8.1,8.1,100,0.02,OVC,,0.32,WeatherDisplay:10.37,2013-04-13 02:09:00,
2013-04-12 22:14:00,33.0,33.0,29.93,NNE,25,8.1,8.1,100,0.02,OVC,,0.32,WeatherDisplay:10.37,2013-04-13 02:14:00,
2013-04-12 22:19:00,33.0,33.0,29.93,North,10,10.4,10.4,100,0.02,OVC,,0.32,WeatherDisplay:10.37,2013-04-13 02:19:00,
2013-04-12 22:24:00,33.1,33.1,29.93,NNE,28,10.4,10.4,100,0.03,RA,,0.33,WeatherDisplay:10.37,2013-04-13 02:24:00,
2013-04-12 22:29:00,33.1,33.1,29.93,NNE,18,8.1,8.1,100,0.02,RA,,0.33,WeatherDisplay:10.37,2013-04-13 02:29:00,
2013-04-12 22:34:00,33.1,33.1,29.92,NE,38,8.1,8.1,100,0.02,OVC,,0.33,WeatherDisplay:10.37,2013-04-13 02:34:00,
2013-04-12 22:39:00,33.1,33.1,29.91,NNE,25,8.1,8.1,100,0.02,OVC,,0.33,WeatherDisplay:10.37,2013-04-13 02:39:00,
2013-04-12 22:44:00,33.1,33.1,29.92,NNE,24,8.1,8.1,100,0.02,OVC,,0.33,WeatherDisplay:10.37,2013-04-13 02:44:00,
2013-04-12 22:49:00,33.1,33.1,29.92,NNE,25,10.4,10.4,100,0.02,OVC,,0.33,WeatherDisplay:10.37,2013-04-13 02:49:00,
2013-04-12 22:54:00,33.1,33.1,29.91,NE,38,9.2,9.2,100,0.02,OVC,,0.33,WeatherDisplay:10.37,2013-04-13 02:54:00,
2013-04-12 22:59:00,33.0,33.0,29.91,North,354,9.2,9.2,100,0.01,OVC,,0.33,WeatherDisplay:10.37,2013-04-13 02:59:00,
2013-04-12 23:04:00,32.7,32.7,29.91,North,0,8.1,8.1,100,0.01,OVC,,0.33,WeatherDisplay:10.37,2013-04-13 03:04:00,
2013-04-12 23:09:00,32.7,32.7,29.91,NE,35,3.5,3.5,100,0.01,OVC,,0.33,WeatherDisplay:10.37,2013-04-13 03:09:00,
2013-04-12 23:14:00,32.7,32.7,29.90,North,6,10.4,10.4,100,0.02,RA,,0.34,WeatherDisplay:10.37,2013-04-13 03:14:00,
2013-04-12 23:19:00,32.7,32.7,29.90,North,0,5.8,5.8,100,0.02,RA,,0.34,WeatherDisplay:10.37,2013-04-13 03:19:00,
2013-04-12 23:24:00,32.7,32.7,29.90,NNE,17,3.5,3.5,100,0.01,OVC,,0.34,WeatherDisplay:10.37,2013-04-13 03:24:00,
2013-04-12 23:29:00,32.5,32.5,29.90,North,359,9.2,9.2,100,0.01,OVC,,0.34,WeatherDisplay:10.37,2013-04-13 03:29:00,
2013-04-12 23:34:00,32.5,32.5,29.90,North,0,8.1,8.1,100,0.01,OVC,,0.34,WeatherDisplay:10.37,2013-04-13 03:34:00,
2013-04-12 23:39:00,32.4,32.4,29.89,NNE,21,8.1,8.1,100,0.01,OVC,,0.34,WeatherDisplay:10.37,2013-04-13 03:39:00,
2013-04-12 23:44:00,32.4,32.4,29.90,WNW,292,8.1,8.1,100,0.01,OVC,,0.34,WeatherDisplay:10.37,2013-04-13 03:44:00,
2013-04-12 23:49:00,32.2,32.2,29.90,North,359,5.8,5.8,100,0.01,OVC,,0.34,WeatherDisplay:10.37,2013-04-13 03:49:00,
2013-04-12 23:55:00,32.1,32.1,29.90,North,357,8.1,8.1,100,0.01,OVC,,0.34,WeatherDisplay:10.37,2013-04-13 03:55:00,